METAR AND TAF INFORMATION
METAR FOR LELN
ADDS - METARS form results

(1934 UTC 19 January 2022)
Data provider http://aviationweather.gov/metar/data/
 
METAR text: LELN 191930Z 00000KT CAVOK M03/M05 Q1030
Conditions at: LELN (LEON/VIRGEN CAMI, ES) observed 1930 UTC 19 January 2022
Temperature: -3.0°C (27°F)
Dewpoint: -5.0°C (23°F) [RH = 86%]
Pressure (altimeter): 30.41 inches Hg (1030.0 mb)
Winds: calm
Visibility: 6 or more miles (10+ km)
Ceiling: ceiling and visibility are OK
Clouds: unknown
Weather: no significant weather observed at this time

METAR text: LELN 191900Z 11001KT CAVOK M01/M05 Q1030
Conditions at: LELN (LEON/VIRGEN CAMI, ES) observed 1900 UTC 19 January 2022
Temperature: -1.0°C (30°F)
Dewpoint: -5.0°C (23°F) [RH = 74%]
Pressure (altimeter): 30.41 inches Hg (1030.0 mb)
Winds: from the ESE (110 degrees) at 1 MPH (1 knots; 0.5 m/s)
Visibility: 6 or more miles (10+ km)
Ceiling: ceiling and visibility are OK
Clouds: unknown
Weather: no significant weather observed at this time

Forecast for: LELN (LEON/VIRGEN CAMI, ES)
Text: TAF LELN 191400Z 1915/2015 VRB04KT CAVOK TX14/1915Z TNM03/2006Z
Forecast period: 1500 UTC 19 January 2022 to 1500 UTC 20 January 2022
Forecast type: FROM: standard forecast or significant change
Winds: variable direction winds at 5 MPH (4 knots; 2.1 m/s)
Visibility: 6 or more miles (10+ km)
Ceiling: unknown
Clouds: missing
Weather: no significant weather forecast for this period

 AIRPORT MAP

 RUNWAY INFORMATION
Runway 05 Runway length 6890 ft Runway width 148 ft
Runway elevation 2994 ft Runway displaced threshold 0 ft Runway heading 45
Runway 23 Runway length 6890 ft Runway width 148 ft
Runway elevation 3001 ft Runway displaced threshold 0 ft Runway heading 225
Runway 06 Runway length 3609 ft Runway width 328 ft
Runway elevation 3034 ft Runway displaced threshold 0 ft Runway heading 60
Runway 24 Runway length 3609 ft Runway width 328 ft
Runway elevation 3000 ft Runway displaced threshold 0 ft Runway heading 240

 AIRPORT FREQUENCIES
Type APP Name APP Frequency 122.1 MHZ
Type TWR Name TWR Frequency 122.1 MHZ

 AIRPORT NEAR NAVIGATION AIDS
Type VOR-DME Name Leon Frequency 112000 KHZ
Type NDB Name Leon Frequency 330 KHZ



Powered by Virtual Airlines Manager [v2.6.2]